Pagrindinis puslapis
METAR-TAF:

METAR-TAF

Oro uostai :

Kiutahija, Turkija

platuma: 39-06-41N, ilguma: 30-07-48E, Aukštis: 1013 m

Dabartinis oras

Ataskaita buvo paskelbta 11 valandos ir 25 minutes, ne 13:50 UTC
Vėjas 13 kt iš Vakarų/Šiaurės Vakarų
Temperatūra 19°C
Drėgmė 52%
Slėgis 1016 hPa
Matomumas 10 km arba daugiau
Išsisklaidę debesys ne aukštis 4000 ft

METAR: LTBZ 041350Z 30013KT 9999 SCT040 19/09 Q1016

Laikas: 04:15 (01:15 UTC)

Prognozė

Ataskaita buvo paskelbta 2 valandos ir 35 minutes, ne 22:40 UTC
Prognozė galioja nuo 05 metu 00 UTC su 05 metu 09 UTC
Vėjas 2 kt nuo kintamojo kryptimis
Matomumas 10 km arba daugiau
nėra debesų žemiau 1500 m ir nėra kamuolinių lietaus debesų

TAF: LTBZ 042240Z 0500/0509 VRB02KT CAVOK

Orai ataskaitas ir orų prognozės (METAR, TAF).

turimą stotys yra geltonos ir raudonos taškus žemėlapyje.

Perkelti pele per norėdami pamatyti stoties vardą.

Tada spustelėkite, norėdami matyti oro stebėjimo ir prognozės.

Norėdami pakeisti žemėlapį: spustelėkite ant žalios mygtukų su juodo kryžiaus žemyn,; žalią mygtuką su brūkšneliu, jei norite nutolinti; arba žalių rodyklių gretimoms žemėlapius.


METAR-TAF: